Time;durP1;ratioP1;P1;durP2;ratioP2;P2;SDS_P1;SDS_P2;PMS_P1;PMS_P2;Temp;Humidity;BMP_temperature;BMP_pressure;BME280_temperature;BME280_humidity;BME280_pressure;Samples;Min_cycle;Max_cycle;Signal;HPM_P1;HPM_P2
2023/01/13 00:01:24;;;;;;;60.23;54.00;;;8.70;99.90;;;;;;5128779;27;20115;-76
2023/01/13 00:03:51;;;;;;;45.07;26.70;;;8.70;99.90;;;;;;5129337;27;20504;-76
2023/01/13 00:06:20;;;;;;;38.10;9.57;;;8.60;99.90;;;;;;5129017;27;20096;-76
2023/01/13 00:08:50;;;;;;;43.73;27.27;;;8.50;99.90;;;;;;5129254;27;20049;-76
2023/01/13 00:11:16;;;;;;;40.83;13.90;;;8.50;99.90;;;;;;5132699;27;20103;-77
2023/01/13 00:13:42;;;;;;;39.57;16.73;;;8.40;99.90;;;;;;5130598;27;20412;-76
2023/01/13 00:16:17;;;;;;;47.60;36.17;;;8.40;99.90;;;;;;5126482;27;20050;-76
2023/01/13 00:18:43;;;;;;;43.00;21.90;;;8.40;99.90;;;;;;5111053;27;20107;-77
2023/01/13 00:21:18;;;;;;;40.80;14.23;;;8.30;99.90;;;;;;5149226;27;20400;-76
2023/01/13 00:23:44;;;;;;;42.83;16.93;;;8.30;99.90;;;;;;5136194;27;20051;-77
2023/01/13 00:26:13;;;;;;;47.80;11.47;;;8.20;99.90;;;;;;5128452;27;20054;-77
2023/01/13 00:28:39;;;;;;;56.40;41.93;;;8.20;99.90;;;;;;5128963;27;20047;-76
2023/01/13 00:31:10;;;;;;;54.00;36.53;;;8.20;99.90;;;;;;5128144;27;20053;-76
2023/01/13 00:33:37;;;;;;;56.55;32.78;;;8.20;99.90;;;;;;5110330;27;20050;-77
2023/01/13 00:36:05;;;;;;;53.03;28.70;;;8.20;99.90;;;;;;5128561;27;20039;-76
2023/01/13 00:38:32;;;;;;;49.17;13.93;;;8.30;99.90;;;;;;5128210;27;20125;-76
2023/01/13 00:40:59;;;;;;;60.13;16.93;;;8.20;99.90;;;;;;5128045;27;20512;-76
2023/01/13 00:43:26;;;;;;;44.83;16.33;;;8.20;99.90;;;;;;5110131;27;20130;-76
2023/01/13 00:45:52;;;;;;;51.57;17.30;;;8.10;99.90;;;;;;5110339;27;20059;-76
2023/01/13 00:48:19;;;;;;;49.57;21.80;;;8.00;99.90;;;;;;5109681;27;20039;-76
2023/01/13 00:50:46;;;;;;;62.13;21.83;;;8.00;99.90;;;;;;5128399;27;20641;-77
2023/01/13 00:53:12;;;;;;;50.97;13.80;;;7.90;99.90;;;;;;5127981;27;20050;-77
2023/01/13 00:55:38;;;;;;;58.27;37.60;;;7.90;99.90;;;;;;5128225;27;20051;-77
2023/01/13 00:58:04;;;;;;;56.47;32.83;;;7.80;99.90;;;;;;5127391;27;20063;-76
2023/01/13 01:00:33;;;;;;;72.83;59.70;;;7.90;99.90;;;;;;5128014;27;20058;-77
2023/01/13 01:02:58;;;;;;;46.53;16.90;;;7.90;99.90;;;;;;5109321;27;20405;-76
2023/01/13 01:05:24;;;;;;;51.43;15.90;;;8.10;99.90;;;;;;5128212;27;20049;-77
2023/01/13 01:07:50;;;;;;;57.50;26.10;;;7.80;99.90;;;;;;5108932;27;20078;-75
2023/01/13 01:10:16;;;;;;;56.40;23.50;;;7.90;99.90;;;;;;5128021;27;20047;-77
2023/01/13 01:12:41;;;;;;;51.27;14.93;;;7.90;99.90;;;;;;5109584;27;20461;-77
2023/01/13 01:15:08;;;;;;;90.60;80.77;;;7.90;99.90;;;;;;5109557;27;20046;-76
2023/01/13 01:17:35;;;;;;;110.73;96.40;;;7.90;99.90;;;;;;5120830;27;20548;-76
2023/01/13 01:20:03;;;;;;;47.93;14.33;;;8.00;99.90;;;;;;5128008;27;20386;-76
2023/01/13 01:22:28;;;;;;;75.73;55.87;;;8.00;99.90;;;;;;5114129;27;20282;-77
2023/01/13 01:24:54;;;;;;;55.30;15.23;;;7.90;99.90;;;;;;5126104;27;20589;-80
2023/01/13 01:27:20;;;;;;;54.07;25.10;;;7.80;99.90;;;;;;5127320;27;20099;-77
2023/01/13 01:29:45;;;;;;;56.83;25.30;;;7.80;99.90;;;;;;5127767;27;20058;-76
2023/01/13 01:32:11;;;;;;;51.20;13.30;;;7.80;99.90;;;;;;5127199;27;20076;-78
2023/01/13 01:34:38;;;;;;;59.43;20.90;;;7.70;99.90;;;;;;5127174;27;20504;-78
2023/01/13 01:37:04;;;;;;;51.70;13.37;;;7.60;99.90;;;;;;5127218;27;20043;-76
2023/01/13 01:39:30;;;;;;;58.87;34.00;;;7.60;99.90;;;;;;5127907;27;20095;-76
2023/01/13 01:45:12;;;;;;;122.30;109.13;;;7.60;99.90;;;;;;5148057;27;20546;-76
2023/01/13 01:47:38;;;;;;;61.00;38.17;;;7.60;99.90;;;;;;5102956;27;20442;-76
2023/01/13 01:50:04;;;;;;;51.20;15.33;;;7.50;99.90;;;;;;5127292;27;20058;-76
2023/01/13 01:52:36;;;;;;;63.67;32.57;;;7.60;99.90;;;;;;5092294;28;20080;-74
2023/01/13 01:55:06;;;;;;;;;;;7.50;99.90;;;;;;5109661;28;20046;-77
2023/01/13 01:57:49;;;;;;;58.77;24.47;;;7.60;99.90;;;;;;5129710;27;19923;-76
2023/01/13 02:00:15;;;;;;;54.07;15.83;;;7.50;99.90;;;;;;5130342;27;20078;-75
2023/01/13 02:02:43;;;;;;;53.97;24.33;;;7.50;99.90;;;;;;5111767;28;20485;-77
2023/01/13 02:05:09;;;;;;;53.97;20.43;;;7.60;99.90;;;;;;5129947;28;20149;-76
2023/01/13 02:07:37;;;;;;;58.37;12.57;;;7.50;99.90;;;;;;5130161;28;20043;-76
2023/01/13 02:10:07;;;;;;;73.70;39.83;;;7.50;99.90;;;;;;5123883;28;20074;-76
2023/01/13 02:12:34;;;;;;;96.80;60.93;;;7.50;99.90;;;;;;5093326;28;20551;-75
2023/01/13 02:15:02;;;;;;;66.10;39.57;;;7.60;99.90;;;;;;5096405;28;20051;-75
2023/01/13 02:17:52;;;;;;;90.83;77.80;;;7.50;99.90;;;;;;5125421;27;20043;-75
2023/01/13 02:20:48;;;;;;;56.07;15.10;;;7.70;99.90;;;;;;5126522;27;20401;-76
2023/01/13 02:26:29;;;;;;;72.33;34.50;;;7.70;99.90;;;;;;5114991;27;20097;-76
2023/01/13 02:32:38;;;;;;;90.17;79.07;;;7.60;99.90;;;;;;5113756;28;20559;-76
2023/01/13 02:35:11;;;;;;;58.53;25.20;;;7.70;99.90;;;;;;5113752;28;20052;-75
2023/01/13 02:37:41;;;;;;;56.87;24.23;;;7.70;99.90;;;;;;5112864;28;20485;-76
2023/01/13 02:40:35;;;;;;;61.33;16.37;;;7.60;99.90;;;;;;5113609;28;20087;-76
2023/01/13 02:46:08;;;;;;;75.10;48.13;;;7.60;99.90;;;;;;5094543;28;20412;-78
2023/01/13 02:48:36;;;;;;;77.03;58.13;;;7.60;99.90;;;;;;5113488;28;20059;-78
2023/01/13 02:51:11;;;;;;;58.67;21.13;;;7.80;99.90;;;;;;5113163;28;20118;-77
2023/01/13 02:53:49;;;;;;;47.13;17.57;;;7.80;99.90;;;;;;5121924;27;20071;-76
2023/01/13 02:56:16;;;;;;;51.10;17.10;;;7.70;99.90;;;;;;5130311;27;20096;-76
2023/01/13 02:58:44;;;;;;;65.27;31.23;;;7.70;99.90;;;;;;5094781;28;20531;-77
2023/01/13 03:01:10;;;;;;;57.93;21.73;;;7.70;99.90;;;;;;5094824;28;20047;-76
2023/01/13 03:03:35;;;;;;;49.53;15.07;;;7.80;99.90;;;;;;5113166;28;20043;-76
2023/01/13 03:06:15;;;;;;;63.53;20.80;;;7.80;99.90;;;;;;5113125;28;20044;-76
2023/01/13 03:08:53;;;;;;;50.67;12.87;;;7.70;99.90;;;;;;5077940;28;20336;-77
2023/01/13 03:11:20;;;;;;;57.63;29.57;;;7.70;99.90;;;;;;5112274;28;20054;-77
2023/01/13 03:13:52;;;;;;;47.13;18.20;;;7.80;99.90;;;;;;5113114;28;20109;-76
2023/01/13 03:16:31;;;;;;;60.00;27.27;;;7.80;99.90;;;;;;5114965;27;20127;-76
2023/01/13 03:19:15;;;;;;;50.33;14.87;;;7.80;99.90;;;;;;5117976;27;20074;-76
2023/01/13 03:21:50;;;;;;;56.80;29.20;;;7.90;99.90;;;;;;5112355;28;20054;-76
2023/01/13 03:24:21;;;;;;;52.33;23.37;;;7.80;99.90;;;;;;5129016;27;20047;-76
2023/01/13 03:26:53;;;;;;;52.72;15.68;;;7.80;99.90;;;;;;5112641;28;20044;-75
2023/01/13 03:29:34;;;;;;;52.50;15.40;;;7.80;99.90;;;;;;5112554;28;20062;-77
2023/01/13 03:32:13;;;;;;;;;;;7.80;99.90;;;;;;5094397;28;20047;-76
2023/01/13 03:35:03;;;;;;;44.10;13.33;;;7.90;99.90;;;;;;5094429;28;20352;-78
2023/01/13 03:37:35;;;;;;;131.87;120.93;;;7.90;99.90;;;;;;5111090;28;20055;-76
2023/01/13 03:40:11;;;;;;;56.23;37.10;;;7.90;99.90;;;;;;5112307;28;20051;-77
2023/01/13 03:44:20;;;;;;;59.10;40.07;;;7.90;99.90;;;;;;5094030;28;20058;-76
2023/01/13 03:45:31;;;;;;;52.27;17.13;;;7.90;99.90;;;;;;5111763;28;20059;-77
2023/01/13 03:47:59;;;;;;;45.37;13.67;;;8.20;99.90;;;;;;5126906;27;20110;-75
2023/01/13 03:50:29;;;;;;;58.53;38.27;;;8.00;99.90;;;;;;5098033;27;20058;-76
2023/01/13 03:53:03;;;;;;;60.80;27.67;;;7.90;99.90;;;;;;5129949;27;20054;-77
2023/01/13 03:55:36;;;;;;;69.63;58.13;;;7.90;99.90;;;;;;5112583;28;20435;-76
2023/01/13 03:58:15;;;;;;;50.17;21.67;;;7.80;99.90;;;;;;5129323;27;20628;-75
2023/01/13 04:01:11;;;;;;;43.77;13.50;;;7.90;99.90;;;;;;5114334;27;20122;-76
2023/01/13 04:03:42;;;;;;;55.23;17.83;;;7.90;99.90;;;;;;5097439;27;20102;-77
2023/01/13 04:06:26;;;;;;;;;;;7.80;99.90;;;;;;5132263;27;20051;-75
2023/01/13 04:08:57;;;;;;;42.87;19.17;;;7.90;99.90;;;;;;5132669;27;20269;-76
2023/01/13 04:11:38;;;;;;;48.23;21.23;;;7.80;99.90;;;;;;5114004;27;20420;-76
2023/01/13 04:14:07;;;;;;;58.53;20.83;;;7.80;99.90;;;;;;5112128;28;20277;-76
2023/01/13 04:16:33;;;;;;;55.20;26.87;;;7.80;99.90;;;;;;5080489;27;20095;-75
2023/01/13 04:18:59;;;;;;;59.63;38.40;;;7.90;99.90;;;;;;5132399;27;20043;-75
2023/01/13 04:21:25;;;;;;;62.57;27.30;;;7.80;99.90;;;;;;5132062;27;20085;-76
2023/01/13 04:23:50;;;;;;;47.47;19.00;;;7.80;99.90;;;;;;5124371;27;20114;-76
2023/01/13 04:26:18;;;;;;;62.20;24.07;;;7.70;99.90;;;;;;5079006;28;20173;-76
2023/01/13 04:28:44;;;;;;;49.13;17.77;;;7.80;99.90;;;;;;5093002;28;20409;-77
2023/01/13 04:31:11;;;;;;;47.13;13.83;;;7.80;99.90;;;;;;5105690;27;20414;-76
2023/01/13 04:33:36;;;;;;;66.40;40.27;;;7.70;99.90;;;;;;5114189;27;20118;-75
2023/01/13 04:36:02;;;;;;;78.53;65.97;;;7.80;99.90;;;;;;5117645;27;20153;-75
2023/01/13 04:38:28;;;;;;;71.97;57.70;;;7.90;99.90;;;;;;5111620;28;20044;-76
2023/01/13 04:40:53;;;;;;;65.83;43.77;;;8.00;99.90;;;;;;5110648;28;20140;-76
2023/01/13 04:43:19;;;;;;;60.63;35.30;;;7.90;99.90;;;;;;5111151;28;20055;-76
2023/01/13 04:45:45;;;;;;;68.57;56.13;;;7.90;99.90;;;;;;5109986;28;20043;-79
2023/01/13 04:48:11;;;;;;;49.07;15.77;;;8.00;99.90;;;;;;5128505;27;20050;-76
2023/01/13 04:50:37;;;;;;;70.63;50.90;;;8.00;99.90;;;;;;5100715;27;20039;-76
2023/01/13 04:53:03;;;;;;;61.07;32.50;;;8.00;99.90;;;;;;5120285;27;20046;-76
2023/01/13 04:55:30;;;;;;;184.73;168.23;;;8.10;99.90;;;;;;5101803;27;20300;-77
2023/01/13 04:58:09;;;;;;;72.03;64.70;;;8.10;99.90;;;;;;5118023;27;20095;-76
2023/01/13 05:00:36;;;;;;;55.13;32.47;;;8.10;99.90;;;;;;5104467;27;20060;-76
2023/01/13 05:03:02;;;;;;;46.17;29.30;;;8.20;99.90;;;;;;5120349;27;20041;-80
2023/01/13 05:05:29;;;;;;;42.63;19.03;;;8.20;99.90;;;;;;5098827;28;20111;-77
2023/01/13 05:07:55;;;;;;;70.47;60.77;;;8.20;99.90;;;;;;5109365;27;20509;-80
2023/01/13 05:10:21;;;;;;;48.07;18.07;;;8.20;99.90;;;;;;5125031;27;20042;-76
2023/01/13 05:18:17;;;;;;;45.30;15.50;;;8.20;99.90;;;;;;5120278;27;20058;-76
2023/01/13 05:20:43;;;;;;;43.50;26.03;;;8.20;99.90;;;;;;5110414;28;20051;-77
2023/01/13 05:25:53;;;;;;;58.00;52.17;;;8.20;99.90;;;;;;5123878;27;20515;-77
2023/01/13 05:28:19;;;;;;;97.43;88.63;;;8.20;99.90;;;;;;5130232;27;20043;-78
2023/01/13 05:30:47;;;;;;;42.27;20.87;;;8.20;99.90;;;;;;5131056;27;20549;-77
2023/01/13 05:33:15;;;;;;;328.70;298.53;;;8.20;99.90;;;;;;5130502;27;20051;-77
2023/01/13 05:35:43;;;;;;;63.30;56.53;;;8.30;99.90;;;;;;5130797;27;20095;-79
2023/01/13 05:38:09;;;;;;;174.90;160.87;;;8.30;99.90;;;;;;5112435;27;20389;-76
2023/01/13 05:43:23;;;;;;;60.23;52.80;;;8.30;99.90;;;;;;5130216;27;20629;-77
2023/01/13 05:46:02;;;;;;;43.13;26.87;;;8.40;99.90;;;;;;5112538;27;20083;-76
2023/01/13 05:48:40;;;;;;;105.13;95.83;;;8.20;99.90;;;;;;5075103;28;20055;-77
2023/01/13 05:51:08;;;;;;;65.17;58.77;;;8.30;99.90;;;;;;5075081;28;20052;-77
2023/01/13 05:53:35;;;;;;;68.90;62.13;;;8.30;99.90;;;;;;5117689;27;20122;-78
2023/01/13 05:56:04;;;;;;;42.73;25.80;;;8.30;99.90;;;;;;5129460;27;20047;-80
2023/01/13 05:58:31;;;;;;;41.13;20.87;;;8.30;99.90;;;;;;5092090;28;20063;-77
2023/01/13 06:01:01;;;;;;;48.23;32.63;;;8.20;99.90;;;;;;5109324;28;20514;-76
2023/01/13 06:03:27;;;;;;;40.83;20.98;;;8.20;99.90;;;;;;5091523;28;20488;-77
2023/01/13 06:05:57;;;;;;;33.73;13.77;;;8.20;99.90;;;;;;5091889;28;20073;-76
2023/01/13 06:08:23;;;;;;;100.47;91.33;;;8.30;99.90;;;;;;5111040;27;20073;-76
2023/01/13 06:10:49;;;;;;;106.47;96.67;;;8.20;99.90;;;;;;5106051;28;20356;-76
2023/01/13 06:13:15;;;;;;;38.20;24.13;;;8.20;99.90;;;;;;5117540;28;20427;-76
2023/01/13 06:15:40;;;;;;;82.63;74.20;;;8.20;99.90;;;;;;5094381;28;20043;-76
2023/01/13 06:18:06;;;;;;;73.20;64.80;;;8.10;99.90;;;;;;5121125;28;20044;-76
2023/01/13 06:20:32;;;;;;;40.43;10.97;;;7.90;99.90;;;;;;5125213;28;20088;-76
2023/01/13 06:22:58;;;;;;;62.47;50.53;;;7.90;99.90;;;;;;5116080;28;20061;-77
2023/01/13 06:25:27;;;;;;;66.83;58.70;;;7.80;99.90;;;;;;5119219;28;20112;-78
2023/01/13 06:27:55;;;;;;;35.43;10.57;;;8.10;99.90;;;;;;5109616;28;20050;-77
2023/01/13 06:30:20;;;;;;;39.13;10.33;;;8.10;99.90;;;;;;5109698;28;20401;-76
2023/01/13 06:32:54;;;;;;;124.27;113.00;;;8.00;99.90;;;;;;5109741;28;20054;-76
2023/01/13 06:35:24;;;;;;;132.80;121.17;;;8.10;99.90;;;;;;5109271;28;20051;-76
2023/01/13 06:37:52;;;;;;;38.50;15.13;;;8.10;99.90;;;;;;5108862;28;20508;-78
2023/01/13 06:40:18;;;;;;;55.17;48.77;;;8.10;99.90;;;;;;5109756;28;20112;-77
2023/01/13 06:45:29;;;;;;;225.23;187.20;;;7.90;99.90;;;;;;5109832;28;20138;-80
2023/01/13 06:47:58;;;;;;;42.07;14.53;;;7.90;99.90;;;;;;5124080;28;20057;-78
2023/01/13 06:50:24;;;;;;;42.43;26.33;;;7.80;99.90;;;;;;5129980;28;20043;-76
2023/01/13 06:52:50;;;;;;;42.93;18.63;;;7.70;99.90;;;;;;5128075;28;20554;-76
2023/01/13 06:55:16;;;;;;;51.33;37.97;;;7.70;99.90;;;;;;5109845;28;20126;-76
2023/01/13 06:57:49;;;;;;;47.47;40.43;;;7.60;99.90;;;;;;5094006;28;20424;-77
2023/01/13 07:00:16;;;;;;;35.00;11.73;;;7.70;99.90;;;;;;5120261;27;20056;-77
2023/01/13 07:02:41;;;;;;;50.37;43.83;;;7.60;99.90;;;;;;5123023;27;20115;-76
2023/01/13 07:05:07;;;;;;;293.57;263.30;;;7.50;99.90;;;;;;5127252;27;20047;-77
2023/01/13 07:07:33;;;;;;;39.80;15.43;;;7.50;99.90;;;;;;5129319;27;20043;-76
2023/01/13 07:09:59;;;;;;;56.93;51.30;;;7.30;99.90;;;;;;5121405;27;20043;-76
2023/01/13 07:12:25;;;;;;;38.23;16.00;;;7.30;99.90;;;;;;5118306;27;20110;-78
2023/01/13 07:17:34;;;;;;;44.80;29.90;;;7.20;99.90;;;;;;5120865;27;20043;-77
2023/01/13 07:20:00;;;;;;;124.70;113.17;;;7.20;99.90;;;;;;5109577;27;20039;-76
2023/01/13 07:22:26;;;;;;;43.20;19.13;;;7.10;99.90;;;;;;5106205;27;20039;-76
2023/01/13 07:24:51;;;;;;;46.97;37.90;;;7.10;99.90;;;;;;5121417;27;20047;-76
2023/01/13 07:27:17;;;;;;;79.17;71.80;;;7.20;99.90;;;;;;5097668;28;20039;-77
2023/01/13 07:29:43;;;;;;;70.03;63.50;;;7.20;99.90;;;;;;5121793;27;20388;-77
2023/01/13 07:32:09;;;;;;;190.97;172.73;;;7.10;99.90;;;;;;5112353;27;20383;-78
2023/01/13 07:34:35;;;;;;;45.70;21.23;;;7.10;99.90;;;;;;5117555;27;20103;-77
2023/01/13 07:37:01;;;;;;;83.00;74.23;;;7.00;99.90;;;;;;5116877;27;20438;-76
2023/01/13 07:39:26;;;;;;;41.40;14.83;;;7.10;99.90;;;;;;5116294;27;20058;-77
2023/01/13 07:44:50;;;;;;;97.23;89.27;;;7.10;99.90;;;;;;5074875;27;20047;-76
2023/01/13 07:47:15;;;;;;;50.80;40.43;;;7.20;99.90;;;;;;5128643;27;20078;-76
2023/01/13 07:49:41;;;;;;;122.80;111.70;;;7.20;99.90;;;;;;5129103;27;20043;-76
2023/01/13 07:52:07;;;;;;;44.23;20.70;;;7.20;99.90;;;;;;5128976;27;20653;-77
2023/01/13 07:54:33;;;;;;;37.77;12.33;;;7.20;99.90;;;;;;5130367;27;20058;-77
2023/01/13 07:56:59;;;;;;;102.73;93.00;;;7.20;99.90;;;;;;5131911;27;20051;-77
2023/01/13 07:59:24;;;;;;;46.20;24.87;;;7.20;99.90;;;;;;5129450;27;20051;-77
2023/01/13 08:01:52;;;;;;;59.53;46.73;;;7.20;99.90;;;;;;5126258;27;20492;-76
2023/01/13 08:04:17;;;;;;;40.77;22.97;;;7.30;99.90;;;;;;5111456;27;20042;-77
2023/01/13 08:06:43;;;;;;;42.00;18.63;;;7.30;99.90;;;;;;5129174;27;20118;-77
2023/01/13 08:09:09;;;;;;;101.43;91.13;;;7.20;99.90;;;;;;5129135;27;20043;-76
2023/01/13 08:11:34;;;;;;;56.30;47.23;;;7.30;99.90;;;;;;5128962;27;20051;-76
2023/01/13 08:14:00;;;;;;;32.87;8.67;;;7.30;99.90;;;;;;5129242;27;20400;-77
2023/01/13 08:16:26;;;;;;;50.00;20.80;;;7.40;99.90;;;;;;5122786;27;20081;-76
2023/01/13 08:18:51;;;;;;;42.70;15.10;;;7.40;99.90;;;;;;5149932;27;20046;-77
2023/01/13 08:21:17;;;;;;;149.17;133.43;;;7.40;99.90;;;;;;5128361;27;20043;-76
2023/01/13 08:23:44;;;;;;;34.77;12.10;;;7.40;99.90;;;;;;5140668;27;20440;-76
2023/01/13 08:26:13;;;;;;;41.47;18.23;;;7.40;99.90;;;;;;5147984;27;20039;-76
2023/01/13 08:28:39;;;;;;;55.80;48.37;;;7.50;99.90;;;;;;5148800;27;20247;-77
2023/01/13 08:31:08;;;;;;;47.23;28.63;;;7.40;99.90;;;;;;5149175;27;20057;-76
2023/01/13 08:33:34;;;;;;;120.40;108.37;;;7.50;99.90;;;;;;5130257;27;20373;-76
2023/01/13 08:36:05;;;;;;;53.63;34.30;;;7.50;99.90;;;;;;5145691;27;20362;-77
2023/01/13 08:38:32;;;;;;;109.20;98.03;;;7.60;99.90;;;;;;5148956;27;20079;-77
2023/01/13 08:40:58;;;;;;;39.77;19.50;;;7.60;99.90;;;;;;5148675;27;20054;-79
2023/01/13 08:43:23;;;;;;;201.03;184.27;;;7.60;99.90;;;;;;5148922;27;20114;-76
2023/01/13 08:46:00;;;;;;;36.97;18.20;;;7.60;99.90;;;;;;5130782;27;20042;-76
2023/01/13 08:48:26;;;;;;;72.47;64.87;;;7.70;99.90;;;;;;5148111;27;20046;-77
2023/01/13 08:50:53;;;;;;;55.57;31.90;;;7.60;99.90;;;;;;5149499;27;20098;-77
2023/01/13 08:53:19;;;;;;;49.53;21.37;;;7.60;99.90;;;;;;5127075;27;20035;-76
2023/01/13 08:55:46;;;;;;;66.07;59.27;;;7.60;99.90;;;;;;5118983;27;20043;-76
2023/01/13 08:58:11;;;;;;;40.70;14.47;;;7.60;99.90;;;;;;5122716;27;20066;-77
2023/01/13 09:00:37;;;;;;;253.17;231.13;;;7.60;99.90;;;;;;5128197;27;20051;-77
2023/01/13 09:03:03;;;;;;;47.83;21.43;;;7.60;99.90;;;;;;5127605;27;20055;-77
2023/01/13 09:05:29;;;;;;;100.80;91.50;;;7.60;99.90;;;;;;5109642;27;20385;-79
2023/01/13 09:07:55;;;;;;;158.10;142.10;;;7.50;99.90;;;;;;5127655;27;20117;-77
2023/01/13 09:10:21;;;;;;;75.17;68.07;;;7.30;99.90;;;;;;5136231;27;20090;-77
2023/01/13 09:15:31;;;;;;;168.30;152.90;;;7.20;99.90;;;;;;5148938;27;20114;-77
2023/01/13 09:17:56;;;;;;;43.10;32.77;;;7.30;99.90;;;;;;5129092;27;20035;-76
2023/01/13 09:20:22;;;;;;;75.27;68.23;;;7.20;99.90;;;;;;5137540;27;20047;-76
2023/01/13 09:22:48;;;;;;;69.77;62.53;;;7.20;99.90;;;;;;5125536;27;20154;-76
2023/01/13 09:25:13;;;;;;;43.17;33.10;;;7.20;99.90;;;;;;5064448;28;20066;-77
2023/01/13 09:27:39;;;;;;;196.70;181.50;;;7.20;99.90;;;;;;5123890;27;20143;-77
2023/01/13 09:30:05;;;;;;;192.80;176.47;;;7.10;99.90;;;;;;5127344;27;20096;-77
2023/01/13 09:32:31;;;;;;;195.23;178.00;;;7.20;99.90;;;;;;5127979;27;20043;-77
2023/01/13 09:35:00;;;;;;;125.20;113.30;;;7.20;99.90;;;;;;5125918;27;20049;-77
2023/01/13 09:37:28;;;;;;;169.60;153.97;;;7.20;99.90;;;;;;5140350;27;20074;-76
2023/01/13 09:39:53;;;;;;;37.73;20.43;;;7.10;99.90;;;;;;5129017;27;20053;-77
2023/01/13 09:45:31;;;;;;;263.40;237.80;;;7.10;99.90;;;;;;5122690;27;20050;-76
2023/01/13 09:48:00;;;;;;;44.00;25.03;;;7.10;99.90;;;;;;5127521;27;20050;-77
2023/01/13 09:50:52;;;;;;;177.80;163.70;;;7.00;99.90;;;;;;5147247;27;20476;-76
2023/01/13 09:53:24;;;;;;;68.07;60.90;;;7.00;99.90;;;;;;5122142;27;20050;-77
2023/01/13 09:55:50;;;;;;;66.27;49.57;;;7.10;99.90;;;;;;5127928;27;20055;-79
2023/01/13 09:58:17;;;;;;;47.60;31.43;;;7.10;99.90;;;;;;5145487;27;20057;-77
2023/01/13 10:00:54;;;;;;;82.40;74.70;;;7.00;99.90;;;;;;5119271;27;20063;-78
2023/01/13 10:03:25;;;;;;;93.17;83.37;;;7.10;99.90;;;;;;5110607;27;20043;-77
2023/01/13 10:06:32;;;;;;;38.40;19.10;;;7.10;99.90;;;;;;5124047;27;20058;-77
2023/01/13 10:08:58;;;;;;;97.40;87.37;;;7.00;99.90;;;;;;5042942;28;20084;-77
2023/01/13 10:14:30;;;;;;;42.55;18.90;;;7.10;99.90;;;;;;5127846;28;20058;-77
2023/01/13 10:17:13;;;;;;;160.05;146.60;;;7.20;99.90;;;;;;5126976;28;20039;-77
2023/01/13 10:19:45;;;;;;;47.20;21.67;;;7.30;99.90;;;;;;5127623;28;20068;-77
2023/01/13 10:22:37;;;;;;;60.63;54.17;;;7.40;99.90;;;;;;5118726;28;20093;-77
2023/01/13 10:25:06;;;;;;;77.47;68.53;;;7.50;99.90;;;;;;5119189;28;20056;-77
2023/01/13 10:27:34;;;;;;;200.00;182.13;;;7.50;99.90;;;;;;5108853;28;20108;-77
2023/01/13 10:30:12;;;;;;;56.43;50.17;;;7.50;99.90;;;;;;5109931;28;20048;-77
2023/01/13 10:32:39;;;;;;;91.50;82.80;;;7.50;99.90;;;;;;5109706;28;20055;-77
2023/01/13 10:35:05;;;;;;;39.83;17.07;;;7.50;99.90;;;;;;5114255;28;20059;-77
2023/01/13 10:37:31;;;;;;;104.97;96.50;;;7.50;99.90;;;;;;5095090;28;20039;-76
2023/01/13 10:40:01;;;;;;;37.17;21.13;;;7.50;99.90;;;;;;5113950;28;20054;-77
2023/01/13 10:42:27;;;;;;;51.73;41.80;;;7.50;99.90;;;;;;5113683;28;20427;-77
2023/01/13 10:44:58;;;;;;;35.90;17.30;;;7.60;99.90;;;;;;5113595;28;20058;-76
2023/01/13 10:47:35;;;;;;;39.55;22.40;;;7.60;99.90;;;;;;5123959;27;20534;-77
2023/01/13 10:50:10;;;;;;;219.90;198.83;;;7.60;99.90;;;;;;5099164;27;20119;-76
2023/01/13 10:52:41;;;;;;;75.20;67.67;;;7.80;99.90;;;;;;5134150;27;20057;-77
2023/01/13 10:55:36;;;;;;;214.07;197.52;;;7.60;99.90;;;;;;5113754;28;20055;-76
2023/01/13 10:58:19;;;;;;;34.57;11.97;;;7.70;99.90;;;;;;5099200;28;20087;-76
2023/01/13 11:00:47;;;;;;;85.23;76.20;;;7.70;99.90;;;;;;5113402;28;20055;-79
2023/01/13 11:03:21;;;;;;;53.10;42.33;;;7.70;99.90;;;;;;5113184;28;20043;-77
2023/01/13 11:05:51;;;;;;;86.83;77.97;;;7.70;99.90;;;;;;5095416;28;20508;-76
2023/01/13 11:08:20;;;;;;;48.42;43.30;;;7.80;99.90;;;;;;5112970;28;20413;-77
2023/01/13 11:10:49;;;;;;;36.57;18.97;;;7.80;99.90;;;;;;5126237;27;20051;-77
2023/01/13 11:13:20;;;;;;;85.17;77.67;;;7.90;99.90;;;;;;5134001;27;20121;-77
2023/01/13 11:16:09;;;;;;;42.47;37.90;;;7.70;99.90;;;;;;5133632;27;20085;-77
2023/01/13 11:19:12;;;;;;;47.73;42.63;;;7.80;99.90;;;;;;5133250;27;20051;-77
2023/01/13 11:22:05;;;;;;;39.37;31.00;;;7.80;99.90;;;;;;5124550;27;20066;-77
2023/01/13 11:24:36;;;;;;;45.67;34.33;;;7.90;99.90;;;;;;5123755;27;20043;-77
2023/01/13 11:27:18;;;;;;;53.63;47.80;;;7.80;99.90;;;;;;5112450;28;20051;-78
2023/01/13 11:30:08;;;;;;;40.23;29.50;;;7.80;99.90;;;;;;5113362;28;20047;-76
2023/01/13 11:32:46;;;;;;;46.73;41.57;;;7.90;99.90;;;;;;5095105;28;20048;-77
2023/01/13 11:35:17;;;;;;;33.80;18.90;;;8.00;99.90;;;;;;5112383;28;20551;-76
2023/01/13 11:37:51;;;;;;;42.95;22.63;;;8.00;99.90;;;;;;5112983;28;20039;-77
2023/01/13 11:40:26;;;;;;;30.83;16.67;;;7.90;99.90;;;;;;5100697;27;20090;-77
2023/01/13 11:43:26;;;;;;;164.30;150.33;;;8.00;99.90;;;;;;5108536;28;20047;-76
2023/01/13 11:45:58;;;;;;;66.13;60.30;;;8.10;99.90;;;;;;5111247;28;20351;-77
2023/01/13 11:48:31;;;;;;;39.43;28.93;;;8.20;99.90;;;;;;5132181;27;20043;-77
2023/01/13 11:51:09;;;;;;;108.77;98.70;;;8.20;99.90;;;;;;5114999;27;20130;-78
2023/01/13 11:53:43;;;;;;;42.47;38.20;;;8.10;99.90;;;;;;5132788;27;20081;-76
2023/01/13 11:56:37;;;;;;;476.73;393.17;;;8.00;99.90;;;;;;5112522;27;20047;-77
2023/01/13 11:59:24;;;;;;;34.60;17.67;;;8.10;99.90;;;;;;5094856;28;20367;-77
2023/01/13 12:01:58;;;;;;;78.90;72.00;;;8.00;99.90;;;;;;5111888;28;20504;-77
2023/01/13 12:04:26;;;;;;;296.17;217.23;;;8.10;99.90;;;;;;5112718;28;20051;-75
2023/01/13 12:07:20;;;;;;;31.30;16.03;;;8.10;99.90;;;;;;5111928;28;20164;-77
2023/01/13 12:10:24;;;;;;;35.27;24.10;;;8.10;99.90;;;;;;5081014;28;20500;-76
2023/01/13 12:13:25;;;;;;;81.97;74.70;;;8.00;99.90;;;;;;5094062;28;20090;-77
2023/01/13 12:16:29;;;;;;;151.23;138.73;;;8.00;99.90;;;;;;5105591;28;20110;-76
2023/01/13 12:19:17;;;;;;;72.33;65.60;;;8.10;99.90;;;;;;5066915;28;20051;-76
2023/01/13 12:22:00;;;;;;;94.20;86.50;;;8.20;99.90;;;;;;5098316;28;20143;-77
2023/01/13 12:24:53;;;;;;;434.10;358.63;;;8.40;99.90;;;;;;5121863;27;20043;-76
2023/01/13 12:27:40;;;;;;;213.87;193.20;;;8.50;99.90;;;;;;5093369;28;20126;-79
2023/01/13 12:30:30;;;;;;;41.53;30.43;;;8.30;99.90;;;;;;5111818;28;20032;-79
2023/01/13 12:33:02;;;;;;;38.07;30.67;;;8.20;99.90;;;;;;5111031;28;20046;-78
2023/01/13 12:35:44;;;;;;;97.28;89.30;;;8.30;99.90;;;;;;5128527;27;20555;-77
2023/01/13 12:38:26;;;;;;;90.10;82.17;;;8.50;99.90;;;;;;5121924;27;20108;-77
2023/01/13 12:40:59;;;;;;;329.53;273.47;;;8.50;99.90;;;;;;5111424;28;20469;-78
2023/01/13 12:46:18;;;;;;;180.13;165.67;;;8.60;99.90;;;;;;5125736;27;20051;-77
2023/01/13 12:48:55;;;;;;;373.70;338.87;;;8.60;99.90;;;;;;5122562;27;20038;-76
2023/01/13 12:51:34;;;;;;;91.07;83.13;;;8.70;99.90;;;;;;5122087;27;20047;-76
2023/01/13 12:54:02;;;;;;;539.83;351.73;;;8.60;99.90;;;;;;5121629;27;20122;-77
2023/01/13 12:56:41;;;;;;;288.03;260.40;;;8.50;99.90;;;;;;5100202;28;20043;-76
2023/01/13 12:59:16;;;;;;;129.63;118.00;;;8.50;99.90;;;;;;5080352;28;20044;-77
2023/01/13 13:01:43;;;;;;;142.80;131.43;;;8.40;99.90;;;;;;5078830;28;20097;-77
2023/01/13 13:04:11;;;;;;;67.43;61.53;;;8.50;99.90;;;;;;5100346;28;20111;-76
2023/01/13 13:06:45;;;;;;;89.60;82.07;;;8.50;99.90;;;;;;5105583;28;20416;-79
2023/01/13 13:09:37;;;;;;;138.10;123.20;;;8.50;99.90;;;;;;5105806;28;20642;-76
2023/01/13 13:15:28;;;;;;;54.23;49.40;;;8.40;99.90;;;;;;5106969;28;20052;-77
2023/01/13 13:18:19;;;;;;;548.40;396.53;;;8.40;99.90;;;;;;5106314;28;20035;-77
2023/01/13 13:20:53;;;;;;;;;;;8.50;99.90;;;;;;5102945;28;20366;-77
2023/01/13 13:23:44;;;;;;;68.60;62.30;;;8.60;99.90;;;;;;5103291;28;19926;-77
2023/01/13 13:26:31;;;;;;;363.08;317.02;;;8.60;99.90;;;;;;5098981;28;20136;-77
2023/01/13 13:29:19;;;;;;;254.53;234.23;;;8.60;99.90;;;;;;5088983;28;20051;-77
2023/01/13 13:32:19;;;;;;;78.23;70.40;;;8.50;99.90;;;;;;5105810;28;20047;-77
2023/01/13 13:35:01;;;;;;;82.77;76.53;;;8.40;99.90;;;;;;5104696;28;20054;-78
2023/01/13 13:46:48;;;;;;;48.10;42.53;;;8.00;99.90;;;;;;5105421;28;20504;-76
2023/01/13 13:49:20;;;;;;;93.73;86.27;;;8.20;99.90;;;;;;5107038;28;20384;-77
2023/01/13 13:52:25;;;;;;;598.37;456.93;;;8.20;99.90;;;;;;5105748;28;20040;-77
2023/01/13 13:54:54;;;;;;;40.53;36.83;;;8.30;99.90;;;;;;5057914;28;20040;-77